Time;durP1;ratioP1;P1;durP2;ratioP2;P2;SDS_P1;SDS_P2;PMS_P1;PMS_P2;Temp;Humidity;BMP_temperature;BMP_pressure;BME280_temperature;BME280_humidity;BME280_pressure;Samples;Min_cycle;Max_cycle;Signal;HPM_P1;HPM_P2
2021/10/01 00:01:57;;;;;;;5.35;4.03;;;;;;;13.15;64.30;101037.25;4484553;32;34742;-48
2021/10/01 00:04:25;;;;;;;6.03;4.35;;;;;;;13.19;64.26;101038.16;4484441;32;35076;-48
2021/10/01 00:06:52;;;;;;;6.45;4.72;;;;;;;13.01;64.29;101035.34;4470332;32;34730;-47
2021/10/01 00:09:20;;;;;;;7.22;4.72;;;;;;;12.95;64.54;101027.44;4484524;32;34105;-47
2021/10/01 00:11:51;;;;;;;4.57;4.10;;;;;;;12.98;64.38;101028.34;4470080;32;34026;-48
2021/10/01 00:14:21;;;;;;;4.70;3.60;;;;;;;13.04;64.30;101032.75;4484426;32;34997;-47
2021/10/01 00:16:49;;;;;;;5.25;3.92;;;;;;;12.80;64.77;101029.06;4484263;32;35122;-48
2021/10/01 00:19:18;;;;;;;6.20;4.20;;;;;;;12.93;64.49;101020.47;4470073;32;33629;-48
2021/10/01 00:21:45;;;;;;;4.90;4.07;;;;;;;12.91;64.71;101027.41;4470054;32;34655;-47
2021/10/01 00:24:13;;;;;;;5.10;3.60;;;;;;;13.10;63.85;101033.72;4484541;32;34959;-49
2021/10/01 00:26:41;;;;;;;5.15;3.50;;;;;;;13.08;63.79;101024.09;4486129;32;34549;-47
2021/10/01 00:29:09;;;;;;;4.15;3.25;;;;;;;12.87;64.70;101022.16;4486114;32;33284;-47
2021/10/01 00:31:38;;;;;;;4.70;3.90;;;;;;;13.00;63.94;101021.41;4486142;32;34817;-48
2021/10/01 00:34:06;;;;;;;5.43;3.72;;;;;;;12.91;64.01;101022.19;4486061;32;34993;-48
2021/10/01 00:36:34;;;;;;;6.68;4.03;;;;;;;12.77;64.46;101023.78;4486095;32;35151;-46
2021/10/01 00:39:03;;;;;;;7.05;3.67;;;;;;;12.81;64.16;101029.94;4485942;32;33920;-47
2021/10/01 00:41:31;;;;;;;4.62;3.35;;;;;;;12.77;64.07;101023.78;4486138;32;34898;-47
2021/10/01 00:43:59;;;;;;;5.68;3.80;;;;;;;12.92;63.28;101033.53;4486102;32;34828;-48
2021/10/01 00:46:26;;;;;;;5.25;3.62;;;;;;;12.87;63.26;101023.03;4486040;32;34492;-48
2021/10/01 00:48:55;;;;;;;7.07;3.30;;;;;;;12.69;63.45;101024.59;4486037;32;33653;-47
2021/10/01 00:51:24;;;;;;;8.20;3.53;;;;;;;12.60;64.00;101020.13;4485995;32;34116;-48
2021/10/01 00:53:53;;;;;;;5.90;4.05;;;;;;;12.59;64.48;101026.22;4471843;32;34812;-48
2021/10/01 00:56:22;;;;;;;6.43;3.83;;;;;;;12.56;64.55;101025.28;4485839;32;34473;-47
2021/10/01 00:58:49;;;;;;;4.93;4.00;;;;;;;12.58;64.49;101016.63;4485810;32;33758;-47
2021/10/01 01:01:17;;;;;;;4.47;3.60;;;;;;;12.70;64.01;101016.75;4471825;32;33957;-48
2021/10/01 01:03:50;;;;;;;4.75;3.90;;;;;;;12.71;63.91;101017.63;4485869;32;35942;-46
2021/10/01 01:06:51;;;;;;;6.07;3.67;;;;;;;12.65;63.68;101010.63;4485929;32;35092;-48
2021/10/01 01:09:30;;;;;;;6.32;3.70;;;;;;;12.53;63.94;101012.22;4453804;32;34069;-47
2021/10/01 01:12:10;;;;;;;6.20;3.70;;;;;;;12.33;64.59;101008.50;4485707;32;33803;-48
2021/10/01 01:14:43;;;;;;;3.97;3.58;;;;;;;12.39;64.65;101008.56;4486098;32;34883;-48
2021/10/01 01:17:51;;;;;;;6.12;3.72;;;;;;;12.43;64.27;101015.59;4472258;32;34417;-49
2021/10/01 01:20:35;;;;;;;;;;;;;;;12.32;64.70;101018.06;4472006;32;33287;-49
2021/10/01 01:23:15;;;;;;;5.55;3.60;;;;;;;12.21;64.64;101015.34;4446030;32;33864;-48
2021/10/01 01:26:02;;;;;;;6.12;3.72;;;;;;;12.37;64.40;101019.00;4471865;32;35387;-49
2021/10/01 01:28:36;;;;;;;10.65;4.85;;;;;;;12.53;63.37;101006.97;4485972;32;34487;-51
2021/10/01 01:31:19;;;;;;;10.27;4.70;;;;;;;12.26;64.48;101009.28;4486169;32;33892;-49
2021/10/01 01:33:47;;;;;;;8.45;4.85;;;;;;;12.44;64.32;101013.00;4471658;32;33970;-52
2021/10/01 01:36:15;;;;;;;6.93;4.43;;;;;;;12.33;64.41;101012.00;4470957;32;34853;-51
2021/10/01 01:38:46;;;;;;;6.20;4.30;;;;;;;12.31;64.74;101010.22;4485448;32;34486;-54
2021/10/01 01:41:15;;;;;;;5.40;4.10;;;;;;;12.22;65.57;101013.59;4458996;32;33417;-53
2021/10/01 01:43:42;;;;;;;5.05;3.90;;;;;;;12.39;65.63;101011.19;4471453;32;33949;-52
2021/10/01 01:46:10;;;;;;;6.30;4.47;;;;;;;12.35;65.82;101012.00;4485876;32;35552;-51
2021/10/01 01:48:39;;;;;;;5.82;3.92;;;;;;;12.55;65.51;101010.50;4458864;32;34436;-52
2021/10/01 01:51:08;;;;;;;5.60;3.72;;;;;;;12.57;65.58;101008.78;4458545;32;33733;-54
2021/10/01 01:53:36;;;;;;;6.50;3.70;;;;;;;12.62;65.60;101009.72;4471682;32;34710;-47
2021/10/01 01:56:06;;;;;;;6.62;4.05;;;;;;;12.63;65.39;101011.44;4458649;32;35223;-48
2021/10/01 01:58:34;;;;;;;4.55;4.00;;;;;;;12.66;65.12;101007.16;4471208;32;34252;-47
2021/10/01 02:01:04;;;;;;;6.43;4.05;;;;;;;12.61;65.28;101003.63;4471739;32;33462;-47
2021/10/01 02:03:34;;;;;;;4.82;3.67;;;;;;;12.79;64.86;101003.78;4471455;32;33676;-48
2021/10/01 02:06:03;;;;;;;6.53;3.78;;;;;;;12.69;65.32;101009.78;4471592;32;35734;-47
2021/10/01 02:08:31;;;;;;;6.30;3.60;;;;;;;12.66;65.79;100999.31;4471264;32;35137;-47
2021/10/01 02:10:59;;;;;;;5.62;4.28;;;;;;;12.65;66.13;101005.38;4471237;32;33435;-47
2021/10/01 02:13:28;;;;;;;9.35;5.10;;;;;;;12.85;65.91;100998.66;4471566;32;33647;-48
2021/10/01 02:15:57;;;;;;;5.68;5.07;;;;;;;12.84;65.74;101007.31;4471546;32;34817;-47
2021/10/01 02:18:27;;;;;;;5.18;4.12;;;;;;;12.93;65.61;101002.19;4458163;32;34442;-49
2021/10/01 02:20:55;;;;;;;4.72;4.00;;;;;;;13.04;65.47;101009.25;4471500;32;33590;-48
2021/10/01 02:23:23;;;;;;;8.20;4.85;;;;;;;13.10;65.39;101012.81;4485550;32;34701;-47
2021/10/01 02:28:47;;;;;;;5.18;4.12;;;;;;;13.08;65.77;101003.22;4473507;32;34896;-48
2021/10/01 02:31:23;;;;;;;4.40;3.95;;;;;;;13.02;66.03;101018.81;4485537;32;34084;-47
2021/10/01 02:33:51;;;;;;;4.82;4.22;;;;;;;13.06;66.27;101018.88;4471277;32;32256;-49
2021/10/01 02:36:19;;;;;;;8.30;4.97;;;;;;;13.18;65.74;101011.16;4485644;32;35664;-48
2021/10/01 02:38:47;;;;;;;8.48;4.75;;;;;;;12.89;66.60;101023.03;4485116;32;35104;-48
2021/10/01 02:41:15;;;;;;;5.95;3.97;;;;;;;13.07;66.54;101030.22;4485605;32;34125;-47
2021/10/01 02:43:42;;;;;;;6.30;4.60;;;;;;;13.19;66.32;101027.72;4485259;32;33919;-47
2021/10/01 02:46:10;;;;;;;13.82;4.95;;;;;;;13.33;65.99;101016.53;4485292;32;34940;-48
2021/10/01 02:48:38;;;;;;;5.78;4.40;;;;;;;13.42;65.58;101020.94;4485159;32;34517;-47
2021/10/01 02:51:12;;;;;;;7.50;4.65;;;;;;;13.25;66.20;101025.12;4471313;32;33442;-47
2021/10/01 02:54:07;;;;;;;8.77;4.03;;;;;;;13.38;66.37;101016.56;4471462;32;34406;-49
2021/10/01 02:56:40;;;;;;;7.12;4.30;;;;;;;13.45;65.88;101018.34;4461951;32;34843;-47
2021/10/01 02:59:08;;;;;;;5.75;4.18;;;;;;;13.39;66.52;101015.66;4485027;32;34107;-48
2021/10/01 03:01:36;;;;;;;7.30;4.57;;;;;;;13.36;66.51;101021.75;4471199;32;33651;-47
2021/10/01 03:04:07;;;;;;;8.40;5.15;;;;;;;13.53;66.01;101014.91;4471019;32;33950;-48
2021/10/01 03:06:37;;;;;;;7.07;4.50;;;;;;;13.36;66.75;101018.28;4485273;32;34955;-47
2021/10/01 03:09:06;;;;;;;6.03;4.47;;;;;;;13.47;66.29;101016.63;4471063;32;35312;-47
2021/10/01 03:11:34;;;;;;;7.47;4.70;;;;;;;13.51;65.71;101019.25;4485208;32;33343;-48
2021/10/01 03:14:02;;;;;;;5.97;4.40;;;;;;;13.51;65.56;101011.41;4471221;32;34607;-47
2021/10/01 03:16:32;;;;;;;4.87;4.12;;;;;;;13.65;65.09;101013.22;4471166;32;34833;-47
2021/10/01 03:19:03;;;;;;;6.60;4.68;;;;;;;13.66;64.97;101007.16;4471015;32;34222;-47
2021/10/01 03:21:32;;;;;;;6.85;4.25;;;;;;;13.59;64.82;101014.09;4457857;32;33923;-48
2021/10/01 03:24:00;;;;;;;6.32;4.15;;;;;;;13.74;64.27;101008.09;4470864;32;33984;-47
2021/10/01 03:26:27;;;;;;;4.47;3.80;;;;;;;13.77;64.27;101008.09;4471015;32;35071;-47
2021/10/01 03:28:55;;;;;;;5.87;3.92;;;;;;;13.66;64.75;101010.66;4485131;32;34396;-47
2021/10/01 03:31:27;;;;;;;5.82;4.68;;;;;;;13.57;65.16;101005.38;4484976;32;34314;-47
2021/10/01 03:33:55;;;;;;;5.50;4.27;;;;;;;13.76;64.97;101008.97;4485082;32;34721;-48
2021/10/01 03:36:23;;;;;;;5.05;4.22;;;;;;;13.65;65.25;101008.00;4484862;32;34908;-48
2021/10/01 03:38:55;;;;;;;7.80;4.15;;;;;;;13.84;64.67;101005.50;4458788;32;34188;-49
2021/10/01 03:41:23;;;;;;;9.52;5.37;;;;;;;13.67;65.32;101008.91;4484811;32;33492;-49
2021/10/01 03:43:51;;;;;;;8.10;5.47;;;;;;;13.85;65.10;101002.06;4470949;32;33967;-48
2021/10/01 03:46:19;;;;;;;7.05;5.05;;;;;;;13.70;65.35;100999.34;4484729;32;34873;-48
2021/10/01 03:48:47;;;;;;;6.40;5.05;;;;;;;13.69;65.86;101009.78;4484907;32;35216;-51
2021/10/01 03:51:15;;;;;;;6.18;4.93;;;;;;;13.92;65.23;100998.59;4484869;32;33292;-47
2021/10/01 03:53:42;;;;;;;5.50;4.62;;;;;;;13.86;65.45;101002.94;4484708;32;34705;-48
2021/10/01 03:56:16;;;;;;;9.10;5.43;;;;;;;13.84;65.88;100995.06;4484691;32;35755;-50
2021/10/01 03:58:45;;;;;;;11.27;4.95;;;;;;;13.91;65.60;100996.84;4483760;32;34693;-50
2021/10/01 04:01:14;;;;;;;5.53;4.65;;;;;;;13.91;65.54;100990.72;4470796;32;33383;-48
2021/10/01 04:03:41;;;;;;;6.40;4.47;;;;;;;14.05;65.17;100989.94;4484576;32;33886;-50
2021/10/01 04:06:09;;;;;;;7.45;4.45;;;;;;;14.06;64.92;100983.84;4484771;32;35246;-52
2021/10/01 04:08:37;;;;;;;7.68;4.55;;;;;;;14.08;65.46;100996.91;4484621;32;35268;-51
2021/10/01 04:11:05;;;;;;;7.87;5.20;;;;;;;14.06;65.49;100996.94;4484638;32;33611;-54
2021/10/01 04:13:33;;;;;;;7.55;4.72;;;;;;;14.11;65.39;100987.34;4484380;32;34043;-52
2021/10/01 04:16:00;;;;;;;6.22;4.90;;;;;;;14.16;65.43;100992.59;4470136;32;34229;-53
2021/10/01 04:18:28;;;;;;;7.60;5.18;;;;;;;14.02;65.93;100995.16;4484561;32;34345;-48
2021/10/01 04:20:56;;;;;;;11.27;5.22;;;;;;;14.12;65.78;100996.09;4484170;32;33218;-47
2021/10/01 04:23:23;;;;;;;8.88;5.47;;;;;;;14.09;65.66;100996.06;4484303;32;34776;-48
2021/10/01 04:25:55;;;;;;;6.83;5.43;;;;;;;14.21;65.49;100990.88;4484385;32;34181;-47
2021/10/01 04:28:22;;;;;;;7.18;5.35;;;;;;;14.17;65.79;100992.59;4470302;32;34429;-48
2021/10/01 04:30:51;;;;;;;8.48;6.05;;;;;;;14.18;65.83;100994.38;4484435;32;33650;-48
2021/10/01 04:33:23;;;;;;;7.72;5.68;;;;;;;14.18;65.81;100996.97;4484093;32;34032;-49
2021/10/01 04:35:52;;;;;;;7.65;6.18;;;;;;;14.18;65.88;101004.81;4484387;32;35757;-47
2021/10/01 04:38:21;;;;;;;7.37;5.93;;;;;;;14.35;65.00;101006.66;4484232;32;34203;-48
2021/10/01 04:40:49;;;;;;;8.43;5.72;;;;;;;14.22;65.41;101000.47;4484271;32;33270;-50
2021/10/01 04:43:21;;;;;;;11.93;6.20;;;;;;;14.20;65.66;101000.47;4484119;32;33548;-47
2021/10/01 04:45:51;;;;;;;8.38;5.00;;;;;;;14.29;65.69;100997.00;4484145;32;33616;-47
2021/10/01 04:48:19;;;;;;;8.75;6.53;;;;;;;14.16;66.41;101013.53;4484028;32;34465;-48
2021/10/01 04:50:47;;;;;;;8.77;5.93;;;;;;;14.23;66.40;101012.69;4483918;32;33606;-48
2021/10/01 04:53:14;;;;;;;9.15;6.00;;;;;;;14.24;66.44;101006.56;4484065;32;33938;-47
2021/10/01 04:55:42;;;;;;;6.72;5.55;;;;;;;14.36;66.39;101000.56;4483878;32;35694;-47
2021/10/01 04:58:10;;;;;;;7.53;6.40;;;;;;;14.33;66.55;101000.56;4483653;32;35019;-48
2021/10/01 05:00:41;;;;;;;10.13;6.32;;;;;;;14.40;66.59;101007.56;4484006;32;34814;-50
2021/10/01 05:03:16;;;;;;;9.80;7.00;;;;;;;14.47;66.43;101014.56;4483774;32;34755;-48
2021/10/01 05:05:45;;;;;;;9.20;6.70;;;;;;;14.48;66.69;101005.81;4483883;32;35928;-48
2021/10/01 05:08:16;;;;;;;10.60;6.53;;;;;;;14.56;66.46;101006.72;4483819;32;35051;-48
2021/10/01 05:11:01;;;;;;;11.55;7.28;;;;;;;14.64;66.31;101008.47;4484939;32;32841;-48
2021/10/01 05:13:34;;;;;;;8.90;6.25;;;;;;;14.51;66.79;101006.72;4486188;32;34816;-47
2021/10/01 05:16:17;;;;;;;9.10;6.50;;;;;;;14.75;66.24;101019.00;4485324;32;34997;-49
2021/10/01 05:19:00;;;;;;;9.73;6.70;;;;;;;14.60;66.68;101011.97;4485805;32;34357;-48
2021/10/01 05:21:32;;;;;;;8.80;6.87;;;;;;;14.39;67.12;101011.91;4485740;32;32162;-48
2021/10/01 05:24:00;;;;;;;9.70;7.25;;;;;;;14.59;66.66;101014.59;4485941;32;34582;-47
2021/10/01 05:26:27;;;;;;;11.70;6.87;;;;;;;14.52;67.03;101004.97;4485697;32;35275;-47
2021/10/01 05:28:55;;;;;;;11.77;7.78;;;;;;;14.69;66.43;101011.13;4485932;32;34255;-47
2021/10/01 05:31:23;;;;;;;10.45;7.53;;;;;;;14.64;66.73;101012.87;4485706;32;33509;-48
2021/10/01 05:33:51;;;;;;;8.90;7.25;;;;;;;14.77;66.52;101014.62;4485629;32;34904;-47
2021/10/01 05:36:19;;;;;;;11.00;7.78;;;;;;;14.77;66.59;101017.25;4485520;32;35069;-48
2021/10/01 05:38:47;;;;;;;11.02;8.48;;;;;;;14.78;66.75;101013.78;4471432;32;34859;-48
2021/10/01 05:41:14;;;;;;;13.20;9.10;;;;;;;14.90;66.47;101019.03;4485926;32;33286;-47
2021/10/01 05:43:42;;;;;;;17.77;10.20;;;;;;;14.78;67.12;101019.00;4485853;32;33805;-48
2021/10/01 05:46:10;;;;;;;15.38;10.77;;;;;;;14.95;66.63;101019.91;4485857;32;34815;-47
2021/10/01 05:48:55;;;;;;;14.50;10.63;;;;;;;15.04;66.45;101021.66;4485669;32;33577;-47
2021/10/01 05:51:46;;;;;;;18.20;11.98;;;;;;;15.03;66.75;101012.91;4485547;32;34486;-50
2021/10/01 05:54:23;;;;;;;16.20;12.02;;;;;;;15.18;66.27;101023.44;4471333;32;32472;-47
2021/10/01 05:56:56;;;;;;;17.77;12.48;;;;;;;15.11;66.52;101028.66;4485268;32;33658;-50
2021/10/01 05:59:24;;;;;;;16.52;12.60;;;;;;;15.11;66.39;101026.91;4485750;32;34299;-48
2021/10/01 06:01:51;;;;;;;19.12;13.45;;;;;;;15.28;66.18;101027.81;4471269;32;34293;-48
2021/10/01 06:04:21;;;;;;;21.15;14.10;;;;;;;15.26;66.09;101019.03;4485719;32;35034;-49
2021/10/01 06:06:48;;;;;;;20.60;14.55;;;;;;;15.00;67.09;101028.62;4458083;32;34294;-48
2021/10/01 06:09:18;;;;;;;20.90;14.98;;;;;;;15.20;66.70;101021.69;4485653;32;35042;-50
2021/10/01 06:11:46;;;;;;;25.08;17.23;;;;;;;15.23;66.79;101024.31;4471223;32;33587;-48
2021/10/01 06:14:19;;;;;;;25.52;16.73;;;;;;;15.30;66.87;101018.19;4485307;32;35203;-51
2021/10/01 06:16:47;;;;;;;20.25;16.10;;;;;;;15.36;66.97;101023.41;4485327;32;35888;-52
2021/10/01 06:19:14;;;;;;;19.20;15.15;;;;;;;15.56;66.76;101023.44;4485599;32;34403;-53
2021/10/01 06:21:42;;;;;;;27.60;15.48;;;;;;;15.56;66.87;101023.44;4484936;32;34321;-52
2021/10/01 06:24:10;;;;;;;20.80;15.38;;;;;;;15.29;67.86;101031.28;4485332;32;33896;-54
2021/10/01 06:26:38;;;;;;;19.00;15.27;;;;;;;15.45;67.44;101033.91;4471052;32;34782;-52
2021/10/01 06:29:06;;;;;;;20.83;15.23;;;;;;;15.53;67.46;101023.44;4485263;32;34341;-51
2021/10/01 06:31:33;;;;;;;17.55;14.55;;;;;;;15.53;67.39;101026.94;4485296;32;33967;-54
2021/10/01 06:34:01;;;;;;;22.10;15.73;;;;;;;15.56;67.54;101032.19;4485616;32;34072;-54
2021/10/01 06:36:28;;;;;;;21.48;15.73;;;;;;;15.45;67.68;101031.31;4485219;32;34697;-54
2021/10/01 06:38:56;;;;;;;21.77;15.98;;;;;;;15.52;67.72;101040.06;4485199;32;34742;-53
2021/10/01 06:41:23;;;;;;;20.67;15.45;;;;;;;15.58;67.51;101038.31;4485227;32;33559;-54
2021/10/01 06:43:58;;;;;;;17.05;13.05;;;;;;;15.78;66.65;101033.03;4471139;32;34104;-47
2021/10/01 06:46:36;;;;;;;19.33;14.43;;;;;;;15.68;68.45;101041.78;4484909;32;35700;-48
2021/10/01 08:20:04;;;;;;;10.18;7.90;;;;;;;18.07;58.86;101064.91;4484164;32;33535;-48
2021/10/01 08:22:32;;;;;;;10.00;7.43;;;;;;;17.92;59.10;101062.47;4484006;32;34378;-48
2021/10/01 08:25:00;;;;;;;9.18;7.57;;;;;;;17.82;59.42;101058.16;4483960;32;35730;-47
2021/10/01 08:27:28;;;;;;;8.38;6.68;;;;;;;17.72;59.59;101053.87;4469939;32;34929;-47
2021/10/01 08:29:56;;;;;;;10.63;7.65;;;;;;;17.72;58.98;101059.12;4483855;32;33613;-48
2021/10/01 08:32:23;;;;;;;10.52;7.80;;;;;;;17.44;59.38;101054.97;4483752;32;34806;-47
2021/10/01 08:34:51;;;;;;;11.07;7.37;;;;;;;17.48;59.75;101056.69;4483344;32;34978;-50
2021/10/01 08:37:18;;;;;;;9.52;7.15;;;;;;;17.75;59.77;101059.12;4483388;32;34763;-48
2021/10/01 08:39:45;;;;;;;17.80;5.90;;;;;;;17.74;59.26;101048.59;4483429;32;33340;-48
2021/10/01 08:42:14;;;;;;;8.00;5.87;;;;;;;17.87;58.30;101048.47;4483618;32;34676;-50
2021/10/01 08:44:42;;;;;;;8.32;6.90;;;;;;;17.95;57.94;101046.59;4469139;32;34863;-50
2021/10/01 08:47:12;;;;;;;8.82;6.55;;;;;;;17.77;58.42;101049.44;4485185;32;34335;-50
2021/10/01 08:49:40;;;;;;;10.52;6.80;;;;;;;17.85;58.15;101041.47;4484977;32;33473;-53
2021/10/01 08:52:08;;;;;;;7.87;5.82;;;;;;;17.82;58.08;101045.00;4485551;32;33720;-52
2021/10/01 08:54:36;;;;;;;10.80;6.03;;;;;;;17.78;57.52;101035.38;4485252;32;34796;-51
2021/10/01 08:57:04;;;;;;;8.45;6.70;;;;;;;17.70;57.00;101033.72;4471112;32;34191;-51
2021/10/01 08:59:31;;;;;;;9.18;6.70;;;;;;;17.84;56.94;101034.44;4485278;32;33445;-51
2021/10/01 09:01:59;;;;;;;9.98;6.85;;;;;;;17.81;57.11;101035.34;4485328;32;34770;-55
2021/10/01 09:04:27;;;;;;;10.13;7.03;;;;;;;17.82;57.23;101034.47;4485215;32;35927;-53
2021/10/01 09:06:57;;;;;;;12.23;6.75;;;;;;;17.73;57.38;101037.22;4471114;32;34325;-55
2021/10/01 09:09:35;;;;;;;9.75;6.78;;;;;;;17.87;56.94;101032.69;4484879;32;33705;-49
2021/10/01 09:12:03;;;;;;;11.25;7.05;;;;;;;17.80;57.00;101028.38;4485118;32;33834;-48
2021/10/01 09:14:41;;;;;;;12.30;7.32;;;;;;;17.83;56.63;101032.72;4484755;32;35089;-47
2021/10/01 09:17:15;;;;;;;9.38;6.47;;;;;;;17.76;57.05;101028.41;4484728;32;35248;-48
2021/10/01 09:19:44;;;;;;;9.13;6.20;;;;;;;17.80;56.86;101024.84;4484982;32;34137;-50
2021/10/01 09:22:44;;;;;;;9.18;6.10;;;;;;;17.79;56.94;101026.59;4485191;32;33990;-48
2021/10/01 09:25:22;;;;;;;8.75;5.72;;;;;;;17.88;57.19;101021.25;4484747;32;34799;-48
2021/10/01 09:27:53;;;;;;;11.35;5.90;;;;;;;18.19;56.31;101013.88;4485093;32;34506;-47
2021/10/01 09:30:21;;;;;;;8.70;6.12;;;;;;;17.98;56.66;101019.38;4484628;32;33300;-48
2021/10/01 09:33:06;;;;;;;7.57;5.60;;;;;;;18.13;56.65;101014.84;4484963;32;34830;-47
2021/10/01 09:35:34;;;;;;;9.43;5.80;;;;;;;18.27;56.44;101023.44;4484834;32;35898;-48
2021/10/01 09:38:14;;;;;;;10.00;6.18;;;;;;;18.52;55.85;101004.72;4484995;32;34714;-47
2021/10/01 09:40:44;;;;;;;9.68;5.72;;;;;;;18.59;55.40;101004.59;4470283;32;33811;-48
2021/10/01 09:43:29;;;;;;;7.10;5.00;;;;;;;18.48;55.43;101000.38;4470056;32;33998;-48
2021/10/01 09:46:06;;;;;;;7.43;5.03;;;;;;;18.66;54.63;101005.41;4484307;32;35043;-48
2021/10/01 09:48:38;;;;;;;7.05;4.80;;;;;;;18.78;54.00;101007.84;4483882;32;34858;-48
2021/10/01 09:51:11;;;;;;;5.78;4.95;;;;;;;18.97;53.77;101009.31;4484342;32;33485;-48
2021/10/01 09:53:57;;;;;;;;;;;;;;;19.11;53.47;101004.69;4484373;32;34006;-47
2021/10/01 09:56:30;;;;;;;7.12;5.00;;;;;;;19.20;52.81;101004.56;4483679;32;35549;-48
2021/10/01 09:59:17;;;;;;;5.75;4.80;;;;;;;19.48;51.92;101008.50;4483735;32;35442;-48
2021/10/01 10:02:03;;;;;;;7.28;4.75;;;;;;;19.58;50.58;101002.19;4470156;32;33579;-48
2021/10/01 10:04:39;;;;;;;7.68;4.80;;;;;;;19.62;50.83;100996.81;4470110;32;34123;-47
2021/10/01 10:07:08;;;;;;;6.80;5.18;;;;;;;19.60;49.60;101004.78;4484469;32;34921;-48
2021/10/01 10:09:39;;;;;;;6.95;5.03;;;;;;;19.70;49.39;100994.91;4484821;32;34526;-49
2021/10/01 10:12:10;;;;;;;6.35;5.50;;;;;;;19.79;48.60;100998.25;4484800;32;33947;-50
2021/10/01 10:14:43;;;;;;;6.22;5.32;;;;;;;19.78;49.73;101001.78;4484618;32;33807;-48
2021/10/01 10:17:15;;;;;;;7.03;5.28;;;;;;;19.84;49.40;100990.25;4484861;32;35686;-48
2021/10/01 10:19:49;;;;;;;8.23;5.00;;;;;;;19.88;48.74;100990.16;4484987;32;34267;-48
2021/10/01 10:22:16;;;;;;;9.52;5.60;;;;;;;19.93;49.15;100990.94;4484624;32;33824;-48
2021/10/01 10:24:44;;;;;;;6.18;5.35;;;;;;;19.93;48.54;100990.06;4484829;32;34624;-49
2021/10/01 10:27:11;;;;;;;5.90;4.80;;;;;;;19.81;49.25;100977.97;4484785;32;35404;-48
2021/10/01 10:29:41;;;;;;;6.68;4.45;;;;;;;19.85;50.32;100984.09;4484495;32;34338;-48
2021/10/01 10:32:10;;;;;;;7.47;5.40;;;;;;;20.08;49.29;100979.22;4470245;32;34278;-49
2021/10/01 10:34:52;;;;;;;6.32;4.97;;;;;;;20.07;48.59;100975.69;4484729;32;34869;-49
2021/10/01 10:37:21;;;;;;;6.95;4.60;;;;;;;20.20;47.54;100976.31;4469976;32;34828;-48
2021/10/01 10:39:52;;;;;;;6.68;5.28;;;;;;;20.12;48.64;100971.19;4484049;32;34855;-48
2021/10/01 10:42:29;;;;;;;6.37;5.28;;;;;;;20.05;48.02;100973.97;4482747;32;33701;-47
2021/10/01 10:45:28;;;;;;;7.35;4.62;;;;;;;20.13;47.45;100972.91;4482968;32;34284;-48
2021/10/01 10:48:01;;;;;;;7.45;4.80;;;;;;;20.19;48.03;100970.16;4482393;32;35207;-47
2021/10/01 10:50:32;;;;;;;6.85;5.07;;;;;;;20.22;47.62;100969.25;4468749;32;34458;-49
2021/10/01 10:53:05;;;;;;;10.15;4.95;;;;;;;20.22;47.92;100964.84;4481858;32;34476;-48
2021/10/01 10:55:34;;;;;;;6.60;5.30;;;;;;;20.15;48.02;100967.62;4482478;32;35407;-48
2021/10/01 11:00:56;;;;;;;5.50;4.68;;;;;;;20.36;47.71;100963.66;4482249;32;34389;-47
2021/10/01 11:03:29;;;;;;;5.70;4.97;;;;;;;20.45;46.69;100959.06;4482758;32;35041;-49
2021/10/01 11:06:09;;;;;;;6.97;4.75;;;;;;;20.38;45.99;100954.81;4482468;32;35061;-47
2021/10/01 11:08:38;;;;;;;7.05;4.65;;;;;;;20.47;44.86;100954.59;4481379;32;35370;-50
2021/10/01 11:11:29;;;;;;;7.20;4.90;;;;;;;20.45;44.90;100951.13;4482566;32;35589;-48
2021/10/01 11:14:14;;;;;;;6.50;5.07;;;;;;;20.60;45.43;100945.50;4482607;32;34258;-48
2021/10/01 11:16:44;;;;;;;6.37;4.40;;;;;;;20.73;45.35;100935.50;4483078;32;33881;-49
2021/10/01 11:19:12;;;;;;;4.43;3.85;;;;;;;20.78;44.81;100934.50;4483071;32;35781;-49
2021/10/01 11:21:42;;;;;;;6.70;4.78;;;;;;;20.83;45.19;100937.91;4482884;32;34853;-50
2021/10/01 11:24:11;;;;;;;10.40;4.43;;;;;;;20.97;45.14;100931.41;4483115;32;34150;-53
2021/10/01 11:26:41;;;;;;;9.32;5.55;;;;;;;21.22;44.71;100925.50;4482945;32;34308;-50
2021/10/01 11:29:23;;;;;;;5.28;4.20;;;;;;;21.18;46.24;100936.19;4482837;32;35354;-53
2021/10/01 11:31:54;;;;;;;6.85;4.22;;;;;;;21.14;44.77;100916.88;4482491;32;34608;-54
2021/10/01 11:34:39;;;;;;;5.65;4.32;;;;;;;21.12;45.33;100923.09;4482450;32;34436;-48
2021/10/01 11:37:28;;;;;;;7.55;4.97;;;;;;;21.22;44.05;100920.19;4482229;32;34681;-48
2021/10/01 11:40:06;;;;;;;5.25;4.50;;;;;;;21.10;45.62;100924.94;4481915;32;35087;-48
2021/10/01 11:42:37;;;;;;;7.15;4.85;;;;;;;21.31;45.19;100916.44;4467385;32;35148;-48
2021/10/01 11:45:20;;;;;;;8.27;5.28;;;;;;;21.34;44.77;100916.38;4481479;32;33570;-48
2021/10/01 11:47:55;;;;;;;10.43;4.82;;;;;;;21.39;45.09;100918.00;4481333;32;33786;-48
2021/10/01 11:50:40;;;;;;;6.28;5.03;;;;;;;21.08;46.90;100910.88;4481723;32;35155;-48
2021/10/01 11:53:24;;;;;;;10.95;5.15;;;;;;;21.11;46.25;100911.66;4481817;32;34301;-48
2021/10/01 11:55:53;;;;;;;7.53;5.65;;;;;;;21.02;45.81;100910.97;4481519;32;33780;-47
2021/10/01 11:58:23;;;;;;;8.77;5.62;;;;;;;20.90;45.89;100910.41;4481777;32;34357;-48
2021/10/01 12:00:50;;;;;;;9.38;5.95;;;;;;;21.05;45.89;100903.00;4467508;32;34827;-48
2021/10/01 12:03:20;;;;;;;6.20;5.10;;;;;;;20.92;45.86;100898.00;4481757;32;35172;-48
2021/10/01 12:05:49;;;;;;;7.72;5.40;;;;;;;20.92;45.74;100905.94;4481880;32;34381;-49
2021/10/01 12:08:23;;;;;;;7.70;6.03;;;;;;;21.09;45.07;100896.72;4481655;32;33992;-48
2021/10/01 12:10:55;;;;;;;8.88;6.37;;;;;;;21.10;44.87;100895.84;4467399;32;36205;-49
2021/10/01 12:13:32;;;;;;;7.55;5.53;;;;;;;21.05;44.70;100889.78;4482402;32;33877;-47
2021/10/01 12:16:04;;;;;;;8.75;5.03;;;;;;;21.10;45.48;100888.78;4482478;32;34221;-47
2021/10/01 12:18:37;;;;;;;7.85;5.37;;;;;;;21.26;44.93;100891.88;4482192;32;33770;-48
2021/10/01 12:21:07;;;;;;;8.85;6.03;;;;;;;21.23;44.80;100884.00;4467975;32;34812;-49
2021/10/01 12:23:55;;;;;;;6.28;5.20;;;;;;;21.41;44.54;100883.53;4468661;32;34419;-50
2021/10/01 12:26:39;;;;;;;12.57;6.35;;;;;;;21.23;45.68;100884.00;4482464;32;33426;-48
2021/10/01 12:29:19;;;;;;;7.35;5.75;;;;;;;21.26;45.72;100879.50;4468247;32;33856;-49
2021/10/01 12:31:55;;;;;;;6.87;6.00;;;;;;;21.16;46.33;100878.00;4468353;32;35869;-47
2021/10/01 12:34:28;;;;;;;6.43;5.72;;;;;;;21.17;46.80;100873.59;4482331;32;34438;-49
2021/10/01 12:37:03;;;;;;;6.93;6.00;;;;;;;20.91;47.14;100872.47;4482142;32;33597;-48
2021/10/01 12:39:31;;;;;;;10.77;6.30;;;;;;;20.35;50.38;100865.03;4482248;32;35071;-47
2021/10/01 12:42:10;;;;;;;9.05;6.80;;;;;;;20.54;49.08;100866.34;4481860;32;35859;-48
2021/10/01 12:44:40;;;;;;;8.38;6.25;;;;;;;20.64;47.83;100857.28;4481926;32;34259;-47
2021/10/01 12:47:20;;;;;;;10.45;6.60;;;;;;;20.55;48.47;100856.66;4481725;32;34180;-48
2021/10/01 12:50:17;;;;;;;7.03;5.25;;;;;;;20.55;47.26;100860.16;4481159;32;34040;-48
2021/10/01 12:52:54;;;;;;;7.72;5.40;;;;;;;20.76;45.96;100857.00;4481348;32;35979;-49
2021/10/01 12:55:22;;;;;;;7.53;5.82;;;;;;;20.54;46.23;100845.19;4481553;32;35315;-48
2021/10/01 12:57:51;;;;;;;7.05;4.95;;;;;;;20.61;46.07;100846.78;4481248;32;34360;-48
2021/10/01 13:00:20;;;;;;;6.87;4.87;;;;;;;20.48;46.42;100841.84;4481286;32;34038;-49
2021/10/01 13:03:11;;;;;;;7.72;5.03;;;;;;;20.62;45.95;100835.31;4467108;32;34876;-47
2021/10/01 13:05:43;;;;;;;8.02;5.50;;;;;;;20.54;46.19;100829.34;4473310;32;35202;-48
2021/10/01 13:08:13;;;;;;;;;;;;;;;20.53;46.54;100840.84;4481553;32;33659;-48
2021/10/01 13:10:52;;;;;;;8.60;5.18;;;;;;;20.54;46.03;100831.97;4480887;32;35248;-48
2021/10/01 13:13:21;;;;;;;7.05;4.40;;;;;;;20.56;45.72;100824.03;4467219;32;35771;-47
2021/10/01 13:15:55;;;;;;;8.45;5.28;;;;;;;20.60;45.94;100823.94;4467234;32;34510;-48
2021/10/01 13:18:28;;;;;;;6.05;4.82;;;;;;;20.68;45.61;100832.50;4481278;32;34742;-47
2021/10/01 13:21:01;;;;;;;6.45;4.55;;;;;;;20.51;45.54;100816.22;4481032;32;33972;-48
2021/10/01 13:23:34;;;;;;;7.90;5.18;;;;;;;20.49;45.83;100820.66;4480972;32;34987;-49